sensor_id;sensor_type;location;lat;lon;timestamp;pressure;altitude;pressure_sealevel;temperature;humidity
11878;BME280;5998;42.676;23.268;2023-02-17T00:01:30;95736.47;;;1.93;100.00
11878;BME280;5998;42.676;23.268;2023-02-17T00:03:59;95732.19;;;1.82;100.00
11878;BME280;5998;42.676;23.268;2023-02-17T00:06:27;95734.59;;;1.83;100.00
11878;BME280;5998;42.676;23.268;2023-02-17T00:08:55;95735.94;;;1.86;100.00
11878;BME280;5998;42.676;23.268;2023-02-17T00:11:22;95735.13;;;1.95;100.00
11878;BME280;5998;42.676;23.268;2023-02-17T00:13:50;95738.88;;;1.94;100.00
11878;BME280;5998;42.676;23.268;2023-02-17T00:16:19;95725.84;;;1.83;100.00
11878;BME280;5998;42.676;23.268;2023-02-17T00:18:46;95735.94;;;1.91;100.00
11878;BME280;5998;42.676;23.268;2023-02-17T00:21:17;95710.13;;;1.71;100.00
11878;BME280;5998;42.676;23.268;2023-02-17T00:23:44;95725.84;;;1.83;100.00
11878;BME280;5998;42.676;23.268;2023-02-17T00:26:11;95723.72;;;1.90;100.00
11878;BME280;5998;42.676;23.268;2023-02-17T00:28:38;95732.75;;;1.78;100.00
11878;BME280;5998;42.676;23.268;2023-02-17T00:31:06;95727.94;;;1.75;100.00
11878;BME280;5998;42.676;23.268;2023-02-17T00:33:32;95721.28;;;1.68;100.00
11878;BME280;5998;42.676;23.268;2023-02-17T00:36:02;95721.28;;;1.68;100.00
11878;BME280;5998;42.676;23.268;2023-02-17T00:38:31;95707.47;;;1.61;100.00
11878;BME280;5998;42.676;23.268;2023-02-17T00:40:58;95712.25;;;1.69;100.00
11878;BME280;5998;42.676;23.268;2023-02-17T00:43:25;95703.25;;;1.80;100.00
11878;BME280;5998;42.676;23.268;2023-02-17T00:45:51;95701.94;;;1.83;100.00
11878;BME280;5998;42.676;23.268;2023-02-17T00:48:18;95687.31;;;1.80;100.00
11878;BME280;5998;42.676;23.268;2023-02-17T00:50:45;95680.94;;;1.71;100.00
11878;BME280;5998;42.676;23.268;2023-02-17T00:53:12;95682.53;;;1.72;100.00
11878;BME280;5998;42.676;23.268;2023-02-17T00:55:40;95686.47;;;1.59;100.00
11878;BME280;5998;42.676;23.268;2023-02-17T00:58:07;95699.75;;;1.59;100.00
11878;BME280;5998;42.676;23.268;2023-02-17T01:00:34;95709.06;;;1.00;100.00
11878;BME280;5998;42.676;23.268;2023-02-17T01:03:01;95707.53;;;1.14;100.00
11878;BME280;5998;42.676;23.268;2023-02-17T01:05:27;95699.41;;;1.31;100.00
11878;BME280;5998;42.676;23.268;2023-02-17T01:07:54;95686.22;;;1.61;100.00
11878;BME280;5998;42.676;23.268;2023-02-17T01:10:21;95687.84;;;1.67;100.00
11878;BME280;5998;42.676;23.268;2023-02-17T01:12:49;95691.25;;;1.62;100.00
11878;BME280;5998;42.676;23.268;2023-02-17T01:15:16;95681.22;;;1.69;100.00
11878;BME280;5998;42.676;23.268;2023-02-17T01:17:43;95696.09;;;1.75;100.00
11878;BME280;5998;42.676;23.268;2023-02-17T01:20:10;95691.53;;;1.71;100.00
11878;BME280;5998;42.676;23.268;2023-02-17T01:22:37;95692.91;;;1.89;100.00
11878;BME280;5998;42.676;23.268;2023-02-17T01:25:04;95684.44;;;2.02;100.00
11878;BME280;5998;42.676;23.268;2023-02-17T01:27:31;95686.56;;;1.95;100.00
11878;BME280;5998;42.676;23.268;2023-02-17T01:29:59;95685.22;;;1.97;100.00
11878;BME280;5998;42.676;23.268;2023-02-17T01:32:26;95689.19;;;1.90;100.00
11878;BME280;5998;42.676;23.268;2023-02-17T01:34:52;95691.03;;;1.79;100.00
11878;BME280;5998;42.676;23.268;2023-02-17T01:37:19;95677.75;;;1.74;100.00
11878;BME280;5998;42.676;23.268;2023-02-17T01:39:46;95664.47;;;1.69;100.00
11878;BME280;5998;42.676;23.268;2023-02-17T01:42:14;95679.88;;;1.77;100.00
11878;BME280;5998;42.676;23.268;2023-02-17T01:47:43;95662.84;;;1.53;100.00
11878;BME280;5998;42.676;23.268;2023-02-17T01:50:10;95685.72;;;1.69;100.00
11878;BME280;5998;42.676;23.268;2023-02-17T01:52:39;95679.19;;;1.19;100.00
11878;BME280;5998;42.676;23.268;2023-02-17T01:55:09;95683.91;;;1.07;100.00
11878;BME280;5998;42.676;23.268;2023-02-17T01:57:38;95674.97;;;1.24;100.00
11878;BME280;5998;42.676;23.268;2023-02-17T02:00:08;95675.69;;;1.09;100.00
11878;BME280;5998;42.676;23.268;2023-02-17T02:02:36;95675.66;;;0.99;100.00
11878;BME280;5998;42.676;23.268;2023-02-17T02:05:04;95670.63;;;1.07;100.00
11878;BME280;5998;42.676;23.268;2023-02-17T02:07:34;95648.78;;;0.80;100.00
11878;BME280;5998;42.676;23.268;2023-02-17T02:10:02;95667.41;;;0.90;100.00
11878;BME280;5998;42.676;23.268;2023-02-17T02:12:31;95665.00;;;0.89;100.00
11878;BME280;5998;42.676;23.268;2023-02-17T02:14:59;95663.44;;;0.93;100.00
11878;BME280;5998;42.676;23.268;2023-02-17T02:17:34;95680.16;;;0.98;100.00
11878;BME280;5998;42.676;23.268;2023-02-17T02:20:27;95673.22;;;0.87;100.00
11878;BME280;5998;42.676;23.268;2023-02-17T02:29:39;95664.75;;;0.90;100.00
11878;BME280;5998;42.676;23.268;2023-02-17T02:32:39;95675.13;;;1.02;100.00
11878;BME280;5998;42.676;23.268;2023-02-17T02:35:12;95677.31;;;1.15;100.00
11878;BME280;5998;42.676;23.268;2023-02-17T02:37:45;95681.84;;;1.25;100.00
11878;BME280;5998;42.676;23.268;2023-02-17T02:40:14;95672.06;;;1.30;100.00
11878;BME280;5998;42.676;23.268;2023-02-17T02:42:43;95676.84;;;1.33;100.00
11878;BME280;5998;42.676;23.268;2023-02-17T02:45:11;95674.50;;;1.42;100.00
11878;BME280;5998;42.676;23.268;2023-02-17T02:47:46;95668.13;;;1.43;100.00
11878;BME280;5998;42.676;23.268;2023-02-17T02:50:16;95666.81;;;1.50;100.00
11878;BME280;5998;42.676;23.268;2023-02-17T02:53:00;95675.84;;;1.49;100.00
11878;BME280;5998;42.676;23.268;2023-02-17T02:55:46;95670.53;;;1.44;100.00
11878;BME280;5998;42.676;23.268;2023-02-17T02:58:18;95673.44;;;1.43;100.00
11878;BME280;5998;42.676;23.268;2023-02-17T03:00:51;95665.59;;;1.06;100.00
11878;BME280;5998;42.676;23.268;2023-02-17T03:03:25;95671.78;;;1.27;100.00
11878;BME280;5998;42.676;23.268;2023-02-17T03:05:56;95651.03;;;1.08;100.00
11878;BME280;5998;42.676;23.268;2023-02-17T03:08:27;95678.41;;;1.24;100.00
11878;BME280;5998;42.676;23.268;2023-02-17T03:10:57;95674.69;;;1.15;100.00
11878;BME280;5998;42.676;23.268;2023-02-17T03:13:24;95674.13;;;1.13;100.00
11878;BME280;5998;42.676;23.268;2023-02-17T03:15:50;95668.78;;;1.08;100.00
11878;BME280;5998;42.676;23.268;2023-02-17T03:18:17;95682.06;;;1.13;100.00
11878;BME280;5998;42.676;23.268;2023-02-17T03:20:50;95670.63;;;1.07;100.00
11878;BME280;5998;42.676;23.268;2023-02-17T03:23:18;95673.25;;;0.92;100.00
11878;BME280;5998;42.676;23.268;2023-02-17T03:25:45;95665.31;;;0.97;100.00
11878;BME280;5998;42.676;23.268;2023-02-17T03:28:12;95664.31;;;1.13;100.00
11878;BME280;5998;42.676;23.268;2023-02-17T03:30:39;95660.28;;;0.96;100.00
11878;BME280;5998;42.676;23.268;2023-02-17T03:33:06;95678.84;;;1.01;100.00
11878;BME280;5998;42.676;23.268;2023-02-17T03:35:33;95682.53;;;0.53;100.00
11878;BME280;5998;42.676;23.268;2023-02-17T03:38:01;95685.16;;;0.48;100.00
11878;BME280;5998;42.676;23.268;2023-02-17T03:40:28;95650.53;;;0.18;100.00
11878;BME280;5998;42.676;23.268;2023-02-17T03:42:55;95676.72;;;0.51;100.00
11878;BME280;5998;42.676;23.268;2023-02-17T03:45:21;95676.72;;;0.51;100.00
11878;BME280;5998;42.676;23.268;2023-02-17T03:47:48;95672.72;;;0.48;100.00
11878;BME280;5998;42.676;23.268;2023-02-17T03:50:15;95684.38;;;0.47;100.00
11878;BME280;5998;42.676;23.268;2023-02-17T03:52:42;95631.66;;;0.09;100.00
11878;BME280;5998;42.676;23.268;2023-02-17T03:55:10;95670.09;;;0.53;100.00
11878;BME280;5998;42.676;23.268;2023-02-17T03:57:36;95670.94;;;0.59;100.00
11878;BME280;5998;42.676;23.268;2023-02-17T04:00:04;95680.41;;;0.50;100.00
11878;BME280;5998;42.676;23.268;2023-02-17T04:02:31;95675.44;;;0.58;100.00
11878;BME280;5998;42.676;23.268;2023-02-17T04:04:57;95678.63;;;0.60;100.00
11878;BME280;5998;42.676;23.268;2023-02-17T04:07:24;95684.72;;;0.61;100.00
11878;BME280;5998;42.676;23.268;2023-02-17T04:09:51;95690.09;;;0.71;100.00
11878;BME280;5998;42.676;23.268;2023-02-17T04:12:19;95672.38;;;0.77;100.00
11878;BME280;5998;42.676;23.268;2023-02-17T04:14:45;95671.38;;;0.88;100.00
11878;BME280;5998;42.676;23.268;2023-02-17T04:17:12;95677.22;;;0.95;100.00
11878;BME280;5998;42.676;23.268;2023-02-17T04:19:39;95683.34;;;0.95;100.00
11878;BME280;5998;42.676;23.268;2023-02-17T04:22:05;95675.09;;;0.97;100.00
11878;BME280;5998;42.676;23.268;2023-02-17T04:24:33;95671.19;;;1.09;100.00
11878;BME280;5998;42.676;23.268;2023-02-17T04:27:00;95669.91;;;1.17;100.00
11878;BME280;5998;42.676;23.268;2023-02-17T04:29:28;95667.47;;;1.10;100.00
11878;BME280;5998;42.676;23.268;2023-02-17T04:31:55;95648.03;;;0.90;100.00
11878;BME280;5998;42.676;23.268;2023-02-17T04:34:22;95666.88;;;0.93;100.00
11878;BME280;5998;42.676;23.268;2023-02-17T04:36:48;95661.84;;;0.97;100.00
11878;BME280;5998;42.676;23.268;2023-02-17T04:39:15;95674.88;;;0.98;100.00
11878;BME280;5998;42.676;23.268;2023-02-17T04:41:42;95688.19;;;0.67;100.00
11878;BME280;5998;42.676;23.268;2023-02-17T04:44:09;95681.63;;;0.74;100.00
11878;BME280;5998;42.676;23.268;2023-02-17T04:46:37;95664.91;;;0.69;100.00
11878;BME280;5998;42.676;23.268;2023-02-17T04:49:03;95671.31;;;0.83;100.00
11878;BME280;5998;42.676;23.268;2023-02-17T04:51:30;95680.34;;;0.82;100.00
11878;BME280;5998;42.676;23.268;2023-02-17T04:53:57;95686.16;;;0.79;100.00
11878;BME280;5998;42.676;23.268;2023-02-17T04:56:23;95682.41;;;0.75;100.00
11878;BME280;5998;42.676;23.268;2023-02-17T04:58:50;95694.66;;;0.81;100.00
11878;BME280;5998;42.676;23.268;2023-02-17T05:01:17;95663.34;;;0.78;100.00
11878;BME280;5998;42.676;23.268;2023-02-17T05:03:45;95648.53;;;0.77;100.00
11878;BME280;5998;42.676;23.268;2023-02-17T05:06:11;95692.31;;;0.94;100.00
11878;BME280;5998;42.676;23.268;2023-02-17T05:08:38;95694.97;;;0.94;100.00
11878;BME280;5998;42.676;23.268;2023-02-17T05:11:05;95674.34;;;1.01;100.00
11878;BME280;5998;42.676;23.268;2023-02-17T05:13:31;95694.81;;;1.16;100.00
11878;BME280;5998;42.676;23.268;2023-02-17T05:15:58;95680.97;;;0.99;100.00
11878;BME280;5998;42.676;23.268;2023-02-17T05:18:25;95707.66;;;0.82;100.00
11878;BME280;5998;42.676;23.268;2023-02-17T05:20:53;95702.31;;;0.77;100.00
11878;BME280;5998;42.676;23.268;2023-02-17T05:23:20;95720.63;;;0.79;100.00
11878;BME280;5998;42.676;23.268;2023-02-17T05:25:46;95711.34;;;0.76;100.00
11878;BME280;5998;42.676;23.268;2023-02-17T05:28:13;95709.16;;;0.68;100.00
11878;BME280;5998;42.676;23.268;2023-02-17T05:30:40;95733.25;;;0.67;100.00
11878;BME280;5998;42.676;23.268;2023-02-17T05:33:07;95724.50;;;0.66;100.00
11878;BME280;5998;42.676;23.268;2023-02-17T05:35:33;95720.81;;;0.67;100.00
11878;BME280;5998;42.676;23.268;2023-02-17T05:38:01;95726.91;;;0.68;100.00
11878;BME280;5998;42.676;23.268;2023-02-17T05:40:28;95730.63;;;0.72;100.00
11878;BME280;5998;42.676;23.268;2023-02-17T05:42:55;95734.34;;;0.71;100.00
11878;BME280;5998;42.676;23.268;2023-02-17T05:45:22;95733.19;;;0.93;100.00
11878;BME280;5998;42.676;23.268;2023-02-17T05:47:48;95722.94;;;1.12;100.00
11878;BME280;5998;42.676;23.268;2023-02-17T05:50:15;95728.75;;;1.14;100.00
11878;BME280;5998;42.676;23.268;2023-02-17T05:52:42;95714.41;;;1.10;100.00
11878;BME280;5998;42.676;23.268;2023-02-17T05:55:10;95735.13;;;1.13;100.00
11878;BME280;5998;42.676;23.268;2023-02-17T05:57:37;95743.66;;;1.20;100.00
11878;BME280;5998;42.676;23.268;2023-02-17T06:00:04;95726.13;;;1.19;100.00
11878;BME280;5998;42.676;23.268;2023-02-17T06:02:31;95750.63;;;1.36;100.00
11878;BME280;5998;42.676;23.268;2023-02-17T06:04:58;95745.88;;;1.43;100.00
11878;BME280;5998;42.676;23.268;2023-02-17T06:07:25;95735.28;;;1.48;100.00
11878;BME280;5998;42.676;23.268;2023-02-17T06:09:51;95747.03;;;1.67;100.00
11878;BME280;5998;42.676;23.268;2023-02-17T06:12:19;95731.66;;;1.74;100.00
11878;BME280;5998;42.676;23.268;2023-02-17T06:14:46;95738.88;;;1.99;100.00
11878;BME280;5998;42.676;23.268;2023-02-17T06:17:13;95737.31;;;2.13;100.00
11878;BME280;5998;42.676;23.268;2023-02-17T06:19:39;95734.94;;;2.27;100.00
11878;BME280;5998;42.676;23.268;2023-02-17T06:22:06;95740.53;;;2.41;100.00
11878;BME280;5998;42.676;23.268;2023-02-17T06:24:33;95733.88;;;2.58;100.00
11878;BME280;5998;42.676;23.268;2023-02-17T06:27:00;95730.94;;;2.70;100.00
11878;BME280;5998;42.676;23.268;2023-02-17T06:29:29;95734.94;;;2.77;100.00
11878;BME280;5998;42.676;23.268;2023-02-17T06:31:56;95738.09;;;2.89;100.00
11878;BME280;5998;42.676;23.268;2023-02-17T06:34:22;95741.25;;;3.07;100.00
11878;BME280;5998;42.676;23.268;2023-02-17T06:36:49;95729.53;;;3.18;100.00
11878;BME280;5998;42.676;23.268;2023-02-17T06:39:16;95741.97;;;3.37;100.00
11878;BME280;5998;42.676;23.268;2023-02-17T06:41:42;95731.31;;;3.42;100.00
11878;BME280;5998;42.676;23.268;2023-02-17T06:44:09;95742.69;;;3.58;100.00
11878;BME280;5998;42.676;23.268;2023-02-17T06:46:37;95742.31;;;3.80;100.00
11878;BME280;5998;42.676;23.268;2023-02-17T06:49:04;95741.47;;;3.94;100.00
11878;BME280;5998;42.676;23.268;2023-02-17T06:51:30;95734.59;;;3.83;100.00
11878;BME280;5998;42.676;23.268;2023-02-17T06:53:57;95743.63;;;3.82;100.00
11878;BME280;5998;42.676;23.268;2023-02-17T06:56:24;95746.78;;;3.94;100.00
11878;BME280;5998;42.676;23.268;2023-02-17T06:58:50;95740.19;;;3.82;100.00
11878;BME280;5998;42.676;23.268;2023-02-17T07:01:20;95743.44;;;4.17;100.00
11878;BME280;5998;42.676;23.268;2023-02-17T07:03:48;95742.91;;;4.54;100.00
11878;BME280;5998;42.676;23.268;2023-02-17T07:06:15;95749.38;;;4.48;100.00
11878;BME280;5998;42.676;23.268;2023-02-17T07:08:41;95741.84;;;4.55;100.00
11878;BME280;5998;42.676;23.268;2023-02-17T07:11:11;95725.97;;;4.40;100.00
11878;BME280;5998;42.676;23.268;2023-02-17T07:13:38;95752.38;;;4.70;100.00
11878;BME280;5998;42.676;23.268;2023-02-17T07:16:06;95749.59;;;4.86;100.00
11878;BME280;5998;42.676;23.268;2023-02-17T07:18:33;95735.03;;;5.02;100.00
11878;BME280;5998;42.676;23.268;2023-02-17T07:21:02;95751.03;;;5.30;100.00
11878;BME280;5998;42.676;23.268;2023-02-17T07:23:30;95756.22;;;5.46;100.00
11878;BME280;5998;42.676;23.268;2023-02-17T07:26:00;95743.78;;;5.60;100.00
11878;BME280;5998;42.676;23.268;2023-02-17T07:28:27;95758.25;;;6.01;100.00
11878;BME280;5998;42.676;23.268;2023-02-17T07:30:54;95761.38;;;6.27;100.00
11878;BME280;5998;42.676;23.268;2023-02-17T07:33:20;95758.91;;;6.49;100.00
11878;BME280;5998;42.676;23.268;2023-02-17T07:35:47;95761.84;;;6.66;100.00
11878;BME280;5998;42.676;23.268;2023-02-17T07:38:15;95736.38;;;6.69;100.00
11878;BME280;5998;42.676;23.268;2023-02-17T07:40:42;95757.88;;;6.96;100.00
11878;BME280;5998;42.676;23.268;2023-02-17T07:43:08;95771.53;;;7.13;100.00
11878;BME280;5998;42.676;23.268;2023-02-17T07:45:35;95763.75;;;7.30;100.00
11878;BME280;5998;42.676;23.268;2023-02-17T07:48:02;95755.75;;;7.25;100.00
11878;BME280;5998;42.676;23.268;2023-02-17T07:50:29;95765.34;;;7.58;100.00
11878;BME280;5998;42.676;23.268;2023-02-17T07:52:56;95765.44;;;7.81;100.00
11878;BME280;5998;42.676;23.268;2023-02-17T07:55:24;95763.66;;;8.03;100.00
11878;BME280;5998;42.676;23.268;2023-02-17T07:57:51;95746.72;;;8.16;100.00
11878;BME280;5998;42.676;23.268;2023-02-17T08:00:18;95753.16;;;8.43;99.80
11878;BME280;5998;42.676;23.268;2023-02-17T08:02:45;95765.69;;;8.69;98.22
11878;BME280;5998;42.676;23.268;2023-02-17T08:05:12;95747.38;;;8.71;94.04
11878;BME280;5998;42.676;23.268;2023-02-17T08:07:39;95761.22;;;9.01;94.68
11878;BME280;5998;42.676;23.268;2023-02-17T08:10:06;95754.59;;;9.07;91.72
11878;BME280;5998;42.676;23.268;2023-02-17T08:12:52;95753.22;;;9.18;89.32
11878;BME280;5998;42.676;23.268;2023-02-17T08:15:36;95759.09;;;9.50;98.43
11878;BME280;5998;42.676;23.268;2023-02-17T08:18:03;95720.41;;;9.60;94.32
11878;BME280;5998;42.676;23.268;2023-02-17T08:20:30;95754.59;;;9.68;85.63
11878;BME280;5998;42.676;23.268;2023-02-17T08:22:57;95750.81;;;9.69;85.22
11878;BME280;5998;42.676;23.268;2023-02-17T08:25:25;95740.81;;;9.70;84.39
11878;BME280;5998;42.676;23.268;2023-02-17T08:27:53;95744.31;;;9.70;84.53
11878;BME280;5998;42.676;23.268;2023-02-17T08:30:20;95745.97;;;9.88;88.93
11878;BME280;5998;42.676;23.268;2023-02-17T08:32:46;95743.34;;;10.14;84.70
11878;BME280;5998;42.676;23.268;2023-02-17T08:35:14;95752.59;;;10.47;62.30
11878;BME280;5998;42.676;23.268;2023-02-17T08:37:42;95745.47;;;10.77;59.73
11878;BME280;5998;42.676;23.268;2023-02-17T08:40:09;95742.59;;;10.99;57.69
11878;BME280;5998;42.676;23.268;2023-02-17T08:42:35;95731.63;;;11.21;56.11
11878;BME280;5998;42.676;23.268;2023-02-17T08:45:05;95734.91;;;11.36;51.88
11878;BME280;5998;42.676;23.268;2023-02-17T08:47:33;95737.22;;;11.54;50.20
11878;BME280;5998;42.676;23.268;2023-02-17T08:49:59;95721.53;;;11.56;48.15
11878;BME280;5998;42.676;23.268;2023-02-17T08:52:26;95735.09;;;11.86;47.83
11878;BME280;5998;42.676;23.268;2023-02-17T08:54:53;95735.66;;;12.00;46.21
11878;BME280;5998;42.676;23.268;2023-02-17T08:57:19;95736.06;;;12.10;46.18
11878;BME280;5998;42.676;23.268;2023-02-17T08:59:47;95735.72;;;12.41;45.43
11878;BME280;5998;42.676;23.268;2023-02-17T09:02:15;95745.53;;;12.46;43.76
11878;BME280;5998;42.676;23.268;2023-02-17T09:04:42;95741.31;;;12.36;43.92
11878;BME280;5998;42.676;23.268;2023-02-17T09:07:09;95727.38;;;12.25;42.61
11878;BME280;5998;42.676;23.268;2023-02-17T09:09:37;95731.69;;;12.47;42.55
11878;BME280;5998;42.676;23.268;2023-02-17T09:12:04;95725.22;;;12.39;42.02
11878;BME280;5998;42.676;23.268;2023-02-17T09:14:31;95730.66;;;12.60;41.98
11878;BME280;5998;42.676;23.268;2023-02-17T09:16:58;95737.09;;;12.68;41.88
11878;BME280;5998;42.676;23.268;2023-02-17T09:19:26;95732.59;;;12.72;41.77
11878;BME280;5998;42.676;23.268;2023-02-17T09:21:52;95736.75;;;12.90;42.28
11878;BME280;5998;42.676;23.268;2023-02-17T09:24:19;95732.75;;;12.96;41.29
11878;BME280;5998;42.676;23.268;2023-02-17T09:26:46;95734.28;;;12.85;40.40
11878;BME280;5998;42.676;23.268;2023-02-17T09:29:12;95747.72;;;12.93;40.89
11878;BME280;5998;42.676;23.268;2023-02-17T09:31:39;95743.22;;;12.97;41.20
11878;BME280;5998;42.676;23.268;2023-02-17T09:34:06;95741.41;;;13.10;40.87
11878;BME280;5998;42.676;23.268;2023-02-17T09:36:37;95745.66;;;13.11;40.42
11878;BME280;5998;42.676;23.268;2023-02-17T09:39:04;95735.38;;;13.05;39.96
11878;BME280;5998;42.676;23.268;2023-02-17T09:41:36;95734.34;;;13.30;40.33
11878;BME280;5998;42.676;23.268;2023-02-17T09:44:04;95735.69;;;13.03;38.66
11878;BME280;5998;42.676;23.268;2023-02-17T09:46:34;95723.38;;;13.14;39.29
11878;BME280;5998;42.676;23.268;2023-02-17T09:49:06;95693.94;;;12.80;39.20
11878;BME280;5998;42.676;23.268;2023-02-17T09:51:39;95732.66;;;13.05;38.60
11878;BME280;5998;42.676;23.268;2023-02-17T09:54:14;95730.56;;;12.89;37.81
11878;BME280;5998;42.676;23.268;2023-02-17T09:56:44;95733.50;;;13.17;38.70
11878;BME280;5998;42.676;23.268;2023-02-17T09:59:14;95713.91;;;12.99;37.73
11878;BME280;5998;42.676;23.268;2023-02-17T10:01:45;95733.72;;;13.12;37.60
11878;BME280;5998;42.676;23.268;2023-02-17T10:04:16;95715.47;;;13.21;37.51
11878;BME280;5998;42.676;23.268;2023-02-17T10:06:50;95726.25;;;13.42;38.73
11878;BME280;5998;42.676;23.268;2023-02-17T10:09:21;95724.38;;;13.67;39.36
11878;BME280;5998;42.676;23.268;2023-02-17T10:11:53;95726.53;;;13.61;37.56
11878;BME280;5998;42.676;23.268;2023-02-17T10:14:28;95718.06;;;13.75;37.75
11878;BME280;5998;42.676;23.268;2023-02-17T10:16:59;95709.97;;;13.87;38.84
11878;BME280;5998;42.676;23.268;2023-02-17T10:19:30;95718.53;;;14.13;37.19
11878;BME280;5998;42.676;23.268;2023-02-17T10:22:06;95706.56;;;14.14;37.93
11878;BME280;5998;42.676;23.268;2023-02-17T10:24:34;95707.81;;;14.04;35.63
11878;BME280;5998;42.676;23.268;2023-02-17T10:27:12;95707.13;;;14.19;36.20
11878;BME280;5998;42.676;23.268;2023-02-17T10:29:49;95696.75;;;14.34;38.36
11878;BME280;5998;42.676;23.268;2023-02-17T10:32:21;95689.38;;;14.58;38.47
11878;BME280;5998;42.676;23.268;2023-02-17T10:35:10;95685.38;;;14.68;35.88
11878;BME280;5998;42.676;23.268;2023-02-17T10:37:47;95687.78;;;14.57;36.74
11878;BME280;5998;42.676;23.268;2023-02-17T10:40:18;95684.44;;;14.24;36.40
11878;BME280;5998;42.676;23.268;2023-02-17T10:42:46;95672.75;;;14.60;39.13
11878;BME280;5998;42.676;23.268;2023-02-17T10:45:20;95690.25;;;14.90;37.60
11878;BME280;5998;42.676;23.268;2023-02-17T10:47:52;95686.19;;;14.56;38.99
11878;BME280;5998;42.676;23.268;2023-02-17T10:50:21;95681.47;;;14.81;38.46
11878;BME280;5998;42.676;23.268;2023-02-17T10:52:50;95666.34;;;14.80;35.94
11878;BME280;5998;42.676;23.268;2023-02-17T10:55:24;95668.28;;;15.23;38.70
11878;BME280;5998;42.676;23.268;2023-02-17T10:57:59;95662.50;;;15.24;35.19
11878;BME280;5998;42.676;23.268;2023-02-17T11:00:30;95659.44;;;14.83;35.66
11878;BME280;5998;42.676;23.268;2023-02-17T11:02:57;95648.53;;;14.95;41.57
11878;BME280;5998;42.676;23.268;2023-02-17T11:05:26;95663.13;;;15.18;36.19
11878;BME280;5998;42.676;23.268;2023-02-17T11:07:57;95653.66;;;15.27;38.47
11878;BME280;5998;42.676;23.268;2023-02-17T11:10:28;95654.34;;;15.24;36.38
11878;BME280;5998;42.676;23.268;2023-02-17T11:12:55;95651.41;;;15.45;42.02
11878;BME280;5998;42.676;23.268;2023-02-17T11:15:26;95654.13;;;15.45;37.82
11878;BME280;5998;42.676;23.268;2023-02-17T11:17:55;95668.88;;;15.75;37.98
11878;BME280;5998;42.676;23.268;2023-02-17T11:20:34;95646.78;;;15.61;36.28
11878;BME280;5998;42.676;23.268;2023-02-17T11:23:07;95632.00;;;15.00;34.94
11878;BME280;5998;42.676;23.268;2023-02-17T11:25:35;95651.09;;;15.03;35.98
11878;BME280;5998;42.676;23.268;2023-02-17T11:28:05;95652.38;;;15.37;39.13
11878;BME280;5998;42.676;23.268;2023-02-17T11:30:34;95646.91;;;15.49;35.85
11878;BME280;5998;42.676;23.268;2023-02-17T11:33:11;95644.00;;;15.73;37.31
11878;BME280;5998;42.676;23.268;2023-02-17T11:35:48;95640.75;;;15.83;35.66
11878;BME280;5998;42.676;23.268;2023-02-17T11:38:19;95635.84;;;15.58;36.08
11878;BME280;5998;42.676;23.268;2023-02-17T11:40:55;95640.50;;;15.57;35.61
11878;BME280;5998;42.676;23.268;2023-02-17T11:43:22;95630.69;;;15.68;36.94
11878;BME280;5998;42.676;23.268;2023-02-17T11:45:57;95626.97;;;15.45;36.36
11878;BME280;5998;42.676;23.268;2023-02-17T11:48:46;95628.66;;;15.81;39.81
11878;BME280;5998;42.676;23.268;2023-02-17T11:51:21;95631.38;;;15.65;36.74
11878;BME280;5998;42.676;23.268;2023-02-17T11:53:59;95620.31;;;15.89;36.38
11878;BME280;5998;42.676;23.268;2023-02-17T11:56:32;95618.16;;;16.14;40.29
11878;BME280;5998;42.676;23.268;2023-02-17T11:59:15;95621.53;;;16.46;40.93
11878;BME280;5998;42.676;23.268;2023-02-17T12:01:57;95615.72;;;16.63;38.94
11878;BME280;5998;42.676;23.268;2023-02-17T12:04:28;95609.78;;;16.58;35.14
11878;BME280;5998;42.676;23.268;2023-02-17T12:07:11;95612.25;;;16.28;36.25
11878;BME280;5998;42.676;23.268;2023-02-17T12:09:47;95618.25;;;16.02;40.68
11878;BME280;5998;42.676;23.268;2023-02-17T12:12:25;95609.13;;;15.75;35.73
11878;BME280;5998;42.676;23.268;2023-02-17T12:15:02;95606.63;;;15.51;36.75
11878;BME280;5998;42.676;23.268;2023-02-17T12:17:43;95599.59;;;15.50;36.29
11878;BME280;5998;42.676;23.268;2023-02-17T12:20:33;95596.78;;;15.62;36.95
11878;BME280;5998;42.676;23.268;2023-02-17T12:23:12;95603.25;;;15.58;35.88
11878;BME280;5998;42.676;23.268;2023-02-17T12:25:46;95586.53;;;15.40;36.45
11878;BME280;5998;42.676;23.268;2023-02-17T12:28:58;95592.22;;;15.19;36.47
11878;BME280;5998;42.676;23.268;2023-02-17T12:31:48;95581.63;;;14.99;36.99
11878;BME280;5998;42.676;23.268;2023-02-17T12:34:20;95569.72;;;15.34;37.70
11878;BME280;5998;42.676;23.268;2023-02-17T12:36:50;95576.13;;;15.26;36.64
11878;BME280;5998;42.676;23.268;2023-02-17T12:39:23;95572.53;;;15.07;36.81
11878;BME280;5998;42.676;23.268;2023-02-17T12:41:57;95565.88;;;15.20;36.82
11878;BME280;5998;42.676;23.268;2023-02-17T12:44:28;95562.13;;;15.56;38.98
11878;BME280;5998;42.676;23.268;2023-02-17T12:46:58;95554.06;;;15.59;38.97
11878;BME280;5998;42.676;23.268;2023-02-17T12:49:29;95564.31;;;15.50;36.86
11878;BME280;5998;42.676;23.268;2023-02-17T12:52:05;95540.22;;;14.86;36.62
11878;BME280;5998;42.676;23.268;2023-02-17T12:54:37;95549.59;;;15.04;36.63
11878;BME280;5998;42.676;23.268;2023-02-17T12:57:14;95547.84;;;15.12;38.22
11878;BME280;5998;42.676;23.268;2023-02-17T12:59:43;95550.13;;;15.10;36.47
11878;BME280;5998;42.676;23.268;2023-02-17T13:02:12;95553.81;;;15.02;37.53
11878;BME280;5998;42.676;23.268;2023-02-17T13:04:40;95551.16;;;14.90;36.71
11878;BME280;5998;42.676;23.268;2023-02-17T13:07:24;95531.16;;;14.94;37.49
11878;BME280;5998;42.676;23.268;2023-02-17T13:09:55;95552.94;;;15.29;37.13
11878;BME280;5998;42.676;23.268;2023-02-17T13:12:33;95549.53;;;15.48;37.68
11878;BME280;5998;42.676;23.268;2023-02-17T13:15:01;95551.34;;;15.59;37.05
11878;BME280;5998;42.676;23.268;2023-02-17T13:17:30;95546.03;;;15.82;36.56
11878;BME280;5998;42.676;23.268;2023-02-17T13:20:19;95541.34;;;15.98;37.61
11878;BME280;5998;42.676;23.268;2023-02-17T13:22:49;95548.22;;;15.57;35.03